Time;durP1;ratioP1;P1;durP2;ratioP2;P2;SDS_P1;SDS_P2;PMS_P1;PMS_P2;Temp;Humidity;BMP_temperature;BMP_pressure;BME280_temperature;BME280_humidity;BME280_pressure;Samples;Min_cycle;Max_cycle;Signal;HPM_P1;HPM_P2
2021/01/27 00:01:17;;;;;;;54.55;29.67;;;1.80;99.90;;;;;;5028957;28;20071;-75
2021/01/27 00:03:44;;;;;;;56.58;32.20;;;1.80;99.90;;;;;;5044950;28;20056;-75
2021/01/27 00:06:10;;;;;;;51.92;30.52;;;1.80;99.90;;;;;;5044427;28;20068;-76
2021/01/27 00:08:36;;;;;;;52.15;28.80;;;1.90;99.90;;;;;;5045824;28;20049;-75
2021/01/27 00:11:03;;;;;;;53.22;29.85;;;1.80;99.90;;;;;;5017456;28;20061;-75
2021/01/27 00:13:29;;;;;;;50.45;31.50;;;1.80;99.90;;;;;;5008737;28;20107;-75
2021/01/27 00:15:56;;;;;;;46.58;27.65;;;1.80;99.90;;;;;;5024402;28;20129;-75
2021/01/27 00:18:22;;;;;;;50.88;28.35;;;1.80;99.90;;;;;;5025571;28;20115;-75
2021/01/27 00:20:49;;;;;;;51.75;30.08;;;1.80;99.90;;;;;;5002440;28;20060;-76
2021/01/27 00:23:16;;;;;;;47.67;28.13;;;1.80;99.90;;;;;;5004658;28;20440;-75
2021/01/27 00:25:43;;;;;;;47.78;27.98;;;1.80;99.90;;;;;;5011149;28;20052;-76
2021/01/27 00:28:10;;;;;;;44.67;26.00;;;1.80;99.90;;;;;;5011736;28;20052;-75
2021/01/27 00:30:42;;;;;;;43.97;28.33;;;1.80;99.90;;;;;;5027993;28;20072;-75
2021/01/27 00:33:11;;;;;;;41.95;27.02;;;1.70;99.90;;;;;;5040903;28;20120;-76
2021/01/27 00:35:41;;;;;;;43.25;28.42;;;1.80;99.90;;;;;;5027120;28;20060;-75
2021/01/27 00:38:28;;;;;;;45.88;27.77;;;1.80;99.90;;;;;;5027747;28;20044;-76
2021/01/27 00:40:57;;;;;;;49.60;26.92;;;1.80;99.90;;;;;;5027359;28;20052;-76
2021/01/27 00:43:27;;;;;;;45.15;28.20;;;1.80;99.90;;;;;;5011652;28;20067;-76
2021/01/27 00:45:54;;;;;;;49.22;30.42;;;1.80;99.90;;;;;;5027704;28;20048;-76
2021/01/27 00:48:22;;;;;;;45.88;27.75;;;1.80;99.90;;;;;;5043221;28;20060;-75
2021/01/27 00:50:49;;;;;;;50.55;29.30;;;1.80;99.90;;;;;;5026677;28;20301;-76
2021/01/27 00:53:16;;;;;;;48.50;29.92;;;1.80;99.90;;;;;;5025756;28;20084;-76
2021/01/27 00:55:45;;;;;;;52.17;31.40;;;1.70;99.90;;;;;;5026979;28;20435;-75
2021/01/27 00:58:13;;;;;;;52.30;29.25;;;1.70;99.90;;;;;;5045629;28;20102;-75
2021/01/27 01:00:43;;;;;;;50.58;30.63;;;1.70;99.90;;;;;;5039114;28;20053;-75
2021/01/27 01:03:19;;;;;;;51.25;30.45;;;1.70;99.90;;;;;;5039930;28;20053;-74
2021/01/27 01:05:46;;;;;;;54.83;31.33;;;1.70;99.90;;;;;;5026300;28;20140;-74
2021/01/27 01:08:15;;;;;;;49.70;28.23;;;1.70;99.90;;;;;;5027528;28;20060;-75
2021/01/27 01:10:48;;;;;;;57.22;30.33;;;1.70;99.90;;;;;;5026781;28;20048;-75
2021/01/27 01:13:19;;;;;;;54.85;31.33;;;1.70;99.90;;;;;;5043427;28;20053;-75
2021/01/27 01:15:47;;;;;;;54.05;31.02;;;1.70;99.90;;;;;;5026184;28;20049;-74
2021/01/27 01:18:13;;;;;;;47.60;29.60;;;1.70;99.90;;;;;;5044178;28;20587;-75
2021/01/27 01:20:40;;;;;;;48.63;30.05;;;1.70;99.90;;;;;;5033425;28;20152;-75
2021/01/27 01:23:07;;;;;;;48.33;31.23;;;1.70;99.90;;;;;;5006465;28;20060;-75
2021/01/27 01:25:34;;;;;;;47.83;30.25;;;1.70;99.90;;;;;;4990721;28;20037;-74
2021/01/27 01:28:03;;;;;;;51.00;29.60;;;1.70;99.90;;;;;;5013988;28;20037;-75
2021/01/27 01:30:35;;;;;;;48.60;29.67;;;1.70;99.90;;;;;;5043373;28;20041;-74
2021/01/27 01:33:06;;;;;;;49.70;29.35;;;1.60;99.90;;;;;;5043386;28;20045;-74
2021/01/27 01:35:34;;;;;;;52.75;30.75;;;1.60;99.90;;;;;;5041431;28;20439;-74
2021/01/27 01:38:00;;;;;;;46.35;29.98;;;1.60;99.90;;;;;;4992382;28;20045;-74
2021/01/27 01:40:31;;;;;;;57.10;30.70;;;1.50;99.90;;;;;;5033714;28;20065;-74
2021/01/27 01:43:11;;;;;;;51.88;28.65;;;1.40;99.90;;;;;;5009599;28;20045;-74
2021/01/27 01:45:39;;;;;;;53.42;29.77;;;1.50;99.90;;;;;;5009472;28;20136;-75
2021/01/27 01:48:22;;;;;;;50.55;30.35;;;1.50;99.90;;;;;;5043020;28;20087;-75
2021/01/27 01:50:57;;;;;;;50.80;30.42;;;1.50;99.90;;;;;;5039014;28;20153;-75
2021/01/27 01:53:24;;;;;;;49.10;31.08;;;1.40;99.90;;;;;;5023618;28;20109;-74
2021/01/27 01:55:54;;;;;;;46.70;31.02;;;1.40;99.90;;;;;;5038132;28;20045;-75
2021/01/27 01:58:21;;;;;;;49.40;30.05;;;1.40;99.90;;;;;;5041069;28;20075;-75
2021/01/27 02:00:53;;;;;;;51.15;30.88;;;1.40;99.90;;;;;;5025855;28;20049;-75
2021/01/27 02:03:21;;;;;;;49.80;30.77;;;1.40;99.90;;;;;;5016346;28;20121;-75
2021/01/27 02:05:48;;;;;;;46.95;29.77;;;1.30;99.90;;;;;;5024821;28;20045;-75
2021/01/27 02:08:16;;;;;;;53.08;31.70;;;1.30;99.90;;;;;;5044784;28;20060;-75
2021/01/27 02:10:43;;;;;;;52.60;30.27;;;1.30;99.90;;;;;;5028370;28;20050;-74
2021/01/27 02:13:40;;;;;;;55.47;31.98;;;1.40;99.90;;;;;;5014068;28;20063;-75
2021/01/27 02:16:14;;;;;;;52.80;32.72;;;1.40;99.90;;;;;;5029197;28;20431;-75
2021/01/27 02:18:53;;;;;;;;;;;1.30;99.90;;;;;;5014205;28;20044;-75
2021/01/27 02:21:25;;;;;;;49.17;31.00;;;1.40;99.90;;;;;;5030194;28;19925;-75
2021/01/27 02:24:08;;;;;;;50.85;29.35;;;1.30;99.90;;;;;;5046688;28;20048;-75
2021/01/27 02:26:48;;;;;;;53.10;30.50;;;1.30;99.90;;;;;;5031523;28;20060;-75
2021/01/27 02:29:23;;;;;;;48.38;31.13;;;1.30;99.90;;;;;;5030003;28;20111;-75
2021/01/27 02:32:24;;;;;;;51.28;30.70;;;1.30;99.90;;;;;;5030081;28;20562;-76
2021/01/27 02:35:17;;;;;;;49.33;30.30;;;1.30;99.90;;;;;;5028769;28;20049;-74
2021/01/27 02:38:08;;;;;;;48.92;30.90;;;1.30;99.90;;;;;;5010240;28;20079;-75
2021/01/27 02:40:51;;;;;;;55.10;30.80;;;1.30;99.90;;;;;;5026376;28;20049;-75
2021/01/27 02:43:24;;;;;;;53.45;32.03;;;1.20;99.90;;;;;;5031260;28;20053;-74
2021/01/27 02:46:26;;;;;;;50.92;31.60;;;1.20;99.90;;;;;;5009665;28;20053;-75
2021/01/27 02:49:25;;;;;;;50.13;28.92;;;1.20;99.90;;;;;;4994240;28;20045;-75
2021/01/27 02:52:01;;;;;;;47.35;29.70;;;1.20;99.90;;;;;;5040235;28;20268;-75
2021/01/27 02:54:38;;;;;;;45.55;28.77;;;1.20;99.90;;;;;;5013292;28;20140;-75
2021/01/27 02:57:14;;;;;;;43.28;28.27;;;1.20;99.90;;;;;;5001782;28;20037;-75
2021/01/27 03:00:27;;;;;;;48.55;29.60;;;1.20;99.90;;;;;;5019760;28;20104;-76
2021/01/27 03:03:03;;;;;;;46.00;30.13;;;1.30;99.90;;;;;;5024497;28;20522;-76
2021/01/27 03:05:32;;;;;;;39.50;25.65;;;1.30;99.90;;;;;;5004418;28;20053;-76
2021/01/27 03:08:25;;;;;;;31.85;24.65;;;1.30;99.90;;;;;;5007538;28;20054;-76
2021/01/27 03:11:13;;;;;;;30.75;24.55;;;1.30;99.90;;;;;;5008515;28;20098;-76
2021/01/27 03:13:43;;;;;;;26.80;22.23;;;1.40;99.90;;;;;;5007570;28;20061;-75
2021/01/27 03:16:14;;;;;;;28.90;23.13;;;1.40;99.90;;;;;;5005233;28;20080;-76
2021/01/27 03:18:44;;;;;;;24.35;21.52;;;1.40;99.90;;;;;;5008190;28;20500;-76
2021/01/27 03:21:17;;;;;;;22.58;20.27;;;1.40;99.90;;;;;;4999401;28;20060;-76
2021/01/27 03:23:52;;;;;;;22.67;20.33;;;1.40;99.90;;;;;;5008946;28;20504;-76
2021/01/27 03:26:28;;;;;;;;;;;1.30;99.90;;;;;;5008350;28;20125;-76
2021/01/27 03:29:15;;;;;;;21.88;19.67;;;1.30;99.90;;;;;;5025702;28;20458;-76
2021/01/27 03:31:41;;;;;;;23.92;21.48;;;1.30;99.90;;;;;;5023045;28;20095;-77
2021/01/27 03:34:23;;;;;;;19.88;18.15;;;1.30;99.90;;;;;;5026347;28;20060;-75
2021/01/27 03:37:09;;;;;;;21.20;18.80;;;1.30;99.90;;;;;;5027723;28;20146;-76
2021/01/27 03:39:42;;;;;;;20.90;18.98;;;1.30;99.90;;;;;;5006760;28;20056;-76
2021/01/27 03:42:21;;;;;;;20.45;18.60;;;1.30;99.90;;;;;;5006786;28;20077;-76
2021/01/27 03:44:59;;;;;;;20.58;18.67;;;1.30;99.90;;;;;;5009573;28;20194;-76
2021/01/27 03:47:33;;;;;;;19.60;17.75;;;1.30;99.90;;;;;;5032235;28;20056;-75
2021/01/27 03:50:06;;;;;;;20.88;18.73;;;1.30;99.90;;;;;;5063013;28;20186;-76
2021/01/27 03:52:44;;;;;;;19.27;17.50;;;1.40;99.90;;;;;;5011917;28;20491;-75
2021/01/27 03:55:28;;;;;;;18.95;17.40;;;1.30;99.90;;;;;;5028497;28;20045;-76
2021/01/27 03:57:58;;;;;;;18.88;17.27;;;1.30;99.90;;;;;;5013238;28;20053;-77
2021/01/27 04:00:29;;;;;;;18.77;17.10;;;1.30;99.90;;;;;;5010700;28;20056;-76
2021/01/27 04:03:14;;;;;;;19.40;17.75;;;1.30;99.90;;;;;;5006319;28;20046;-76
2021/01/27 04:05:41;;;;;;;19.33;17.67;;;1.20;99.90;;;;;;5044816;28;20037;-76
2021/01/27 04:08:07;;;;;;;17.15;15.80;;;1.30;99.90;;;;;;5025728;28;20618;-76
2021/01/27 04:10:34;;;;;;;18.80;17.15;;;1.20;99.90;;;;;;5026349;28;20049;-76
2021/01/27 04:13:02;;;;;;;20.73;18.63;;;1.30;99.90;;;;;;5041740;28;20049;-76
2021/01/27 04:15:28;;;;;;;21.73;19.73;;;1.20;99.90;;;;;;5040149;28;20050;-76
2021/01/27 04:17:55;;;;;;;19.38;17.77;;;1.20;99.90;;;;;;5033889;28;20144;-75
2021/01/27 04:20:22;;;;;;;21.75;19.50;;;1.10;99.90;;;;;;5028424;28;20044;-76
2021/01/27 04:22:49;;;;;;;22.25;19.00;;;1.10;99.90;;;;;;5027744;28;20041;-76
2021/01/27 04:25:16;;;;;;;20.42;18.35;;;1.10;99.90;;;;;;5043229;28;20057;-75
2021/01/27 04:27:44;;;;;;;21.05;18.90;;;1.00;99.90;;;;;;5011165;28;20053;-75
2021/01/27 04:30:13;;;;;;;19.90;17.95;;;0.90;99.90;;;;;;5010788;28;20056;-76
2021/01/27 04:32:40;;;;;;;19.63;17.85;;;0.90;99.90;;;;;;5044630;28;20067;-75
2021/01/27 04:35:07;;;;;;;19.00;17.42;;;0.90;99.90;;;;;;5027628;28;20051;-76
2021/01/27 04:37:34;;;;;;;19.88;18.10;;;0.90;99.90;;;;;;5028016;28;20041;-76
2021/01/27 04:40:00;;;;;;;18.73;17.15;;;0.90;99.90;;;;;;5044557;28;20053;-76
2021/01/27 04:42:28;;;;;;;20.17;18.48;;;0.90;99.90;;;;;;5027566;28;20048;-76
2021/01/27 04:44:57;;;;;;;18.45;16.70;;;0.90;99.90;;;;;;5011593;28;20071;-76
2021/01/27 04:47:54;;;;;;;17.83;16.42;;;1.00;99.90;;;;;;5043224;28;20571;-75
2021/01/27 04:50:33;;;;;;;17.88;16.45;;;1.00;99.90;;;;;;5027523;28;20364;-75
2021/01/27 04:53:28;;;;;;;17.33;15.85;;;1.10;99.90;;;;;;5044903;28;20604;-75
2021/01/27 04:56:29;;;;;;;17.83;16.33;;;1.10;99.90;;;;;;5044939;28;20514;-76
2021/01/27 04:59:40;;;;;;;16.77;15.45;;;1.10;99.90;;;;;;5026843;28;20041;-74
2021/01/27 05:02:52;;;;;;;15.57;14.55;;;1.10;99.90;;;;;;4964866;28;20042;-74
2021/01/27 05:05:28;;;;;;;15.30;14.18;;;1.10;99.90;;;;;;5043633;28;20049;-75
2021/01/27 05:08:06;;;;;;;14.93;13.73;;;1.10;99.90;;;;;;5011110;28;20194;-75
2021/01/27 05:10:52;;;;;;;16.00;14.73;;;1.10;99.90;;;;;;5027193;28;20067;-75
2021/01/27 05:13:26;;;;;;;14.70;13.60;;;1.10;99.90;;;;;;5043402;28;20056;-76
2021/01/27 05:15:56;;;;;;;16.15;14.90;;;1.00;99.90;;;;;;5022734;28;20041;-76
2021/01/27 05:18:22;;;;;;;17.20;15.75;;;1.00;99.90;;;;;;5024307;28;20111;-76
2021/01/27 05:20:49;;;;;;;17.00;15.70;;;1.00;99.90;;;;;;5042735;28;20472;-76
2021/01/27 05:23:17;;;;;;;16.05;14.70;;;1.00;99.90;;;;;;5041690;28;20056;-76
2021/01/27 05:26:17;;;;;;;18.40;16.50;;;1.00;99.90;;;;;;5040528;28;20132;-76
2021/01/27 05:28:53;;;;;;;16.90;15.52;;;1.00;99.90;;;;;;4978297;28;20553;-76
2021/01/27 05:31:19;;;;;;;18.00;16.48;;;1.00;99.90;;;;;;5006421;28;20125;-76
2021/01/27 05:33:52;;;;;;;16.92;15.52;;;1.00;99.90;;;;;;5025840;28;20100;-75
2021/01/27 05:36:27;;;;;;;16.38;14.88;;;1.00;99.90;;;;;;5025580;28;20071;-76
2021/01/27 05:39:13;;;;;;;18.33;16.83;;;1.00;99.90;;;;;;5023295;28;20508;-76
2021/01/27 05:41:40;;;;;;;16.83;15.45;;;1.00;99.90;;;;;;5024122;28;20054;-76
2021/01/27 05:44:14;;;;;;;18.00;16.33;;;0.90;99.90;;;;;;5042213;28;20487;-76
2021/01/27 05:46:42;;;;;;;16.95;15.23;;;0.90;99.90;;;;;;5025822;28;20499;-76
2021/01/27 05:49:30;;;;;;;16.77;15.18;;;0.90;99.90;;;;;;5043862;28;20057;-76
2021/01/27 05:52:32;;;;;;;16.95;15.35;;;0.90;99.90;;;;;;5024354;28;20052;-76
2021/01/27 05:55:07;;;;;;;17.90;16.20;;;0.80;99.90;;;;;;4962804;28;20059;-77
2021/01/27 05:57:33;;;;;;;17.50;15.65;;;0.80;99.90;;;;;;5012359;28;20141;-76
2021/01/27 06:00:27;;;;;;;15.25;13.88;;;0.80;99.90;;;;;;5022927;28;20519;-76
2021/01/27 06:02:56;;;;;;;15.63;14.30;;;0.80;99.90;;;;;;5009226;28;20050;-76
2021/01/27 06:05:39;;;;;;;16.63;15.10;;;0.80;99.90;;;;;;5022703;28;20508;-76
2021/01/27 06:08:11;;;;;;;17.17;15.38;;;0.70;99.90;;;;;;5006998;28;20266;-76
2021/01/27 06:10:38;;;;;;;16.40;14.82;;;0.70;99.90;;;;;;5005525;28;20065;-75
2021/01/27 06:13:24;;;;;;;15.77;14.38;;;0.70;99.90;;;;;;5022085;28;20107;-76
2021/01/27 06:15:52;;;;;;;15.77;14.38;;;0.70;99.90;;;;;;5004534;28;20076;-76
2021/01/27 06:18:20;;;;;;;17.58;15.98;;;0.60;99.90;;;;;;5004656;28;20061;-76
2021/01/27 06:20:47;;;;;;;15.68;14.20;;;0.60;99.90;;;;;;5006031;28;20417;-76
2021/01/27 06:23:13;;;;;;;16.00;14.45;;;0.60;99.90;;;;;;5005557;28;20599;-76
2021/01/27 06:26:00;;;;;;;18.00;16.15;;;0.60;99.90;;;;;;5022331;28;20045;-77
2021/01/27 06:28:40;;;;;;;18.38;16.38;;;0.60;99.90;;;;;;5006096;28;20056;-76
2021/01/27 06:31:27;;;;;;;17.52;15.23;;;0.70;99.90;;;;;;5021774;28;20045;-75
2021/01/27 06:34:10;;;;;;;17.90;14.75;;;0.70;99.90;;;;;;5022706;28;20435;-76
2021/01/27 06:37:17;;;;;;;20.77;14.68;;;0.70;99.90;;;;;;4986982;28;20073;-76
2021/01/27 06:39:47;;;;;;;16.50;15.00;;;0.70;99.90;;;;;;5000625;28;20077;-76
2021/01/27 06:42:45;;;;;;;19.75;17.70;;;0.70;99.90;;;;;;5022214;28;20119;-76
2021/01/27 06:45:36;;;;;;;18.60;16.90;;;0.70;99.90;;;;;;5004984;28;20072;-76
2021/01/27 06:48:25;;;;;;;19.48;16.58;;;0.70;99.90;;;;;;4990053;28;20049;-76
2021/01/27 06:51:16;;;;;;;16.42;14.75;;;0.70;99.90;;;;;;5007418;28;20049;-76
2021/01/27 06:54:17;;;;;;;15.18;13.63;;;0.70;99.90;;;;;;5009493;28;20133;-76
2021/01/27 06:57:02;;;;;;;16.58;14.85;;;0.70;99.90;;;;;;4992419;28;20045;-76
2021/01/27 06:59:39;;;;;;;16.15;14.60;;;0.70;99.90;;;;;;4974279;28;20077;-76
2021/01/27 07:02:23;;;;;;;15.50;14.05;;;0.70;99.90;;;;;;4979679;28;20049;-77
2021/01/27 07:05:07;;;;;;;17.58;15.88;;;0.70;99.90;;;;;;5007191;28;20423;-76
2021/01/27 07:08:10;;;;;;;16.45;14.82;;;0.70;99.90;;;;;;5026267;28;20045;-76
2021/01/27 07:10:53;;;;;;;16.00;14.63;;;0.70;99.90;;;;;;5009902;28;20076;-76
2021/01/27 07:13:57;;;;;;;16.58;14.98;;;0.70;99.90;;;;;;5021440;28;20111;-76
2021/01/27 07:16:32;;;;;;;15.68;14.27;;;0.70;99.90;;;;;;5009523;28;20088;-77
2021/01/27 07:19:28;;;;;;;14.65;13.25;;;0.70;99.90;;;;;;4993092;28;20061;-76
2021/01/27 07:22:10;;;;;;;15.15;13.55;;;0.70;99.90;;;;;;5009031;28;20060;-76
2021/01/27 07:24:44;;;;;;;15.38;14.05;;;0.70;99.90;;;;;;5027567;28;20080;-77
2021/01/27 07:27:18;;;;;;;15.30;13.93;;;0.70;99.90;;;;;;5009486;28;20053;-76
2021/01/27 07:29:49;;;;;;;15.77;14.20;;;0.70;99.90;;;;;;5009754;28;20084;-77
2021/01/27 07:32:29;;;;;;;14.90;13.40;;;0.60;99.90;;;;;;5020942;28;20568;-76
2021/01/27 07:35:03;;;;;;;16.50;14.95;;;0.70;99.90;;;;;;5026179;28;20079;-76
2021/01/27 07:37:41;;;;;;;18.77;16.73;;;0.60;99.90;;;;;;5027654;28;20128;-77
2021/01/27 07:40:32;;;;;;;17.70;16.13;;;0.60;99.90;;;;;;5010786;28;20045;-76
2021/01/27 07:43:04;;;;;;;16.17;14.65;;;0.60;99.90;;;;;;5012377;28;20107;-76
2021/01/27 07:45:33;;;;;;;17.42;15.65;;;0.60;99.90;;;;;;5006257;28;20048;-76
2021/01/27 07:48:40;;;;;;;18.83;16.40;;;0.60;99.90;;;;;;5031962;28;20053;-76
2021/01/27 07:51:26;;;;;;;20.83;18.70;;;0.60;99.90;;;;;;5028375;28;20075;-77
2021/01/27 07:54:11;;;;;;;20.02;17.88;;;0.60;99.90;;;;;;4988081;28;20050;-77
2021/01/27 07:56:55;;;;;;;21.00;18.13;;;0.60;99.90;;;;;;5005220;28;20057;-76
2021/01/27 07:59:33;;;;;;;18.92;16.98;;;0.50;99.90;;;;;;5007875;28;20054;-76
2021/01/27 08:02:09;;;;;;;17.80;16.08;;;0.50;99.90;;;;;;4997791;28;20073;-76
2021/01/27 08:05:05;;;;;;;24.05;19.38;;;0.50;99.90;;;;;;5008729;28;20173;-77
2021/01/27 08:07:39;;;;;;;20.02;16.33;;;0.40;99.90;;;;;;5040871;28;20183;-77
2021/01/27 08:10:15;;;;;;;23.52;17.50;;;0.40;99.90;;;;;;5045057;28;20096;-76
2021/01/27 08:12:53;;;;;;;20.35;18.15;;;0.30;99.90;;;;;;5024708;28;20135;-76
2021/01/27 08:15:25;;;;;;;21.50;17.23;;;0.30;99.90;;;;;;5004368;28;20049;-77
2021/01/27 08:17:54;;;;;;;20.52;17.38;;;0.40;99.90;;;;;;4973099;28;20076;-77
2021/01/27 08:20:42;;;;;;;22.25;17.40;;;0.40;99.90;;;;;;5005782;28;20054;-77
2021/01/27 08:23:19;;;;;;;18.02;14.95;;;0.40;99.90;;;;;;5020370;28;20053;-75
2021/01/27 08:25:57;;;;;;;22.60;18.05;;;0.40;99.90;;;;;;5024612;28;21082;-76
2021/01/27 08:28:36;;;;;;;18.70;16.77;;;0.40;99.90;;;;;;4985124;28;20049;-76
2021/01/27 08:31:09;;;;;;;20.73;16.90;;;0.40;99.90;;;;;;4999100;28;20236;-76
2021/01/27 08:33:41;;;;;;;23.38;17.20;;;0.40;99.90;;;;;;5000358;28;20085;-74
2021/01/27 08:36:13;;;;;;;19.45;16.38;;;0.50;99.90;;;;;;5003998;28;20099;-76
2021/01/27 08:39:06;;;;;;;26.33;17.33;;;0.50;99.90;;;;;;5008162;28;20053;-74
2021/01/27 08:42:17;;;;;;;22.60;17.15;;;0.40;99.90;;;;;;4974483;28;20069;-75
2021/01/27 08:44:44;;;;;;;23.70;17.55;;;0.50;99.90;;;;;;5007408;28;20512;-75
2021/01/27 08:47:19;;;;;;;17.80;15.50;;;0.60;99.90;;;;;;5008270;28;20152;-75
2021/01/27 08:49:52;;;;;;;23.80;17.65;;;0.50;99.90;;;;;;4989393;28;20053;-77
2021/01/27 08:52:19;;;;;;;22.30;17.52;;;0.50;99.90;;;;;;4987286;28;20058;-76
2021/01/27 08:54:51;;;;;;;21.20;16.55;;;0.50;99.90;;;;;;5005460;28;20056;-75
2021/01/27 08:57:37;;;;;;;21.67;17.40;;;0.40;99.90;;;;;;5024705;28;20140;-77
2021/01/27 09:00:35;;;;;;;21.25;17.17;;;0.50;99.90;;;;;;5002950;28;20129;-76
2021/01/27 09:03:04;;;;;;;19.75;16.88;;;0.50;99.90;;;;;;5001557;28;20089;-75
2021/01/27 09:05:31;;;;;;;20.27;18.15;;;0.50;99.90;;;;;;5025319;28;20053;-75
2021/01/27 09:08:11;;;;;;;21.35;18.15;;;0.40;99.90;;;;;;5008075;28;20086;-74
2021/01/27 09:10:43;;;;;;;22.92;16.17;;;0.40;99.90;;;;;;5006120;28;20050;-75
2021/01/27 09:13:39;;;;;;;23.65;17.23;;;0.40;99.90;;;;;;5005053;28;20214;-76
2021/01/27 09:16:12;;;;;;;;;;;0.40;99.90;;;;;;5004241;28;20520;-76
2021/01/27 09:18:40;;;;;;;22.10;16.17;;;0.40;99.90;;;;;;5007834;28;19921;-76
2021/01/27 09:21:15;;;;;;;24.85;14.68;;;0.40;99.90;;;;;;5009746;28;20546;-75
2021/01/27 09:23:43;;;;;;;27.48;17.58;;;0.30;99.90;;;;;;5003648;28;20046;-75
2021/01/27 09:26:19;;;;;;;28.00;15.68;;;0.30;99.90;;;;;;5005583;28;20111;-76
2021/01/27 09:28:47;;;;;;;26.25;15.00;;;0.30;99.90;;;;;;5004174;28;20143;-77
2021/01/27 09:31:20;;;;;;;24.52;13.95;;;0.30;99.90;;;;;;4998833;28;20048;-79
2021/01/27 09:33:46;;;;;;;26.58;15.82;;;0.30;99.90;;;;;;5023142;28;20072;-78
2021/01/27 09:36:23;;;;;;;28.40;15.73;;;0.30;99.90;;;;;;5023707;28;20634;-75
2021/01/27 09:38:59;;;;;;;23.10;15.52;;;0.30;99.90;;;;;;5007235;28;20072;-77
2021/01/27 09:41:31;;;;;;;20.05;13.07;;;0.30;99.90;;;;;;5007278;28;20504;-75
2021/01/27 09:44:01;;;;;;;23.58;14.63;;;0.30;99.90;;;;;;5005340;28;20050;-76
2021/01/27 09:46:35;;;;;;;21.52;13.25;;;0.40;99.90;;;;;;5006857;28;20068;-76
2021/01/27 09:49:04;;;;;;;;;;;0.40;99.90;;;;;;5007612;28;20053;-76
2021/01/27 09:51:31;;;;;;;21.05;13.52;;;0.40;99.90;;;;;;5026574;28;19925;-76
2021/01/27 09:54:00;;;;;;;23.75;14.38;;;0.50;99.90;;;;;;5023681;28;20063;-75
2021/01/27 09:56:28;;;;;;;28.33;14.27;;;0.50;99.90;;;;;;5007747;28;20053;-76
2021/01/27 09:58:57;;;;;;;24.90;13.43;;;0.50;99.90;;;;;;5007429;28;20050;-76
2021/01/27 10:01:26;;;;;;;26.20;13.75;;;0.50;99.90;;;;;;5021695;28;20072;-76
2021/01/27 10:04:08;;;;;;;24.67;13.45;;;0.50;99.90;;;;;;5007149;28;20131;-75
2021/01/27 10:06:38;;;;;;;20.90;12.80;;;0.60;99.90;;;;;;5004696;28;20261;-74
2021/01/27 10:09:32;;;;;;;21.15;12.52;;;0.50;99.90;;;;;;4971704;28;20270;-77
2021/01/27 10:12:06;;;;;;;24.25;15.45;;;0.70;99.90;;;;;;4976961;28;20053;-77
2021/01/27 10:14:38;;;;;;;26.30;16.30;;;0.70;99.90;;;;;;5023741;28;20059;-76
2021/01/27 10:17:07;;;;;;;23.67;14.18;;;0.90;99.90;;;;;;5023377;28;20056;-75
2021/01/27 10:19:38;;;;;;;21.45;15.20;;;0.90;99.90;;;;;;5007243;28;20166;-76
2021/01/27 10:22:06;;;;;;;20.15;15.07;;;1.10;99.90;;;;;;4970926;28;20053;-75
2021/01/27 10:24:53;;;;;;;21.75;17.27;;;1.10;99.90;;;;;;4987635;28;20057;-75
2021/01/27 10:27:30;;;;;;;32.92;20.38;;;1.00;99.90;;;;;;4992127;28;20053;-75
2021/01/27 10:29:56;;;;;;;21.55;16.92;;;1.00;99.90;;;;;;5010491;28;20403;-75
2021/01/27 10:32:34;;;;;;;23.15;16.67;;;0.90;99.90;;;;;;5026073;28;20034;-75
2021/01/27 10:35:23;;;;;;;19.52;14.13;;;1.00;99.90;;;;;;5009955;28;20514;-75
2021/01/27 10:38:04;;;;;;;25.85;17.88;;;1.10;99.90;;;;;;5026824;28;20050;-75
2021/01/27 10:40:32;;;;;;;22.98;15.13;;;1.00;99.90;;;;;;5026376;28;20057;-76
2021/01/27 10:43:20;;;;;;;18.65;14.55;;;1.00;99.90;;;;;;5026331;28;20044;-75
2021/01/27 10:45:46;;;;;;;17.10;14.63;;;1.20;99.90;;;;;;5038580;28;20105;-76
2021/01/27 10:48:20;;;;;;;16.15;13.55;;;1.30;99.90;;;;;;5064767;28;20044;-74
2021/01/27 10:50:54;;;;;;;16.95;15.15;;;1.20;99.90;;;;;;5046568;28;20053;-76
2021/01/27 10:53:39;;;;;;;19.63;15.82;;;1.20;99.90;;;;;;5014186;28;20056;-76
2021/01/27 10:56:05;;;;;;;21.42;15.85;;;1.20;99.90;;;;;;5046270;28;20144;-75
2021/01/27 10:58:32;;;;;;;17.42;14.90;;;1.20;99.90;;;;;;5045960;28;20049;-77
2021/01/27 11:00:58;;;;;;;14.80;13.38;;;1.30;99.90;;;;;;5030026;28;20053;-77
2021/01/27 11:03:25;;;;;;;15.57;14.23;;;1.30;99.90;;;;;;5046683;28;20060;-76
2021/01/27 11:05:52;;;;;;;15.85;14.30;;;1.30;99.90;;;;;;5030212;28;20133;-76
2021/01/27 11:08:27;;;;;;;15.27;13.98;;;1.30;99.90;;;;;;5013165;28;20060;-77
2021/01/27 11:10:59;;;;;;;16.20;14.82;;;1.30;99.90;;;;;;5030325;28;20094;-76
2021/01/27 11:13:26;;;;;;;15.38;14.00;;;1.40;99.90;;;;;;5027263;28;20512;-76
2021/01/27 11:15:52;;;;;;;16.88;15.38;;;1.40;99.90;;;;;;5025147;28;20052;-76
2021/01/27 11:18:20;;;;;;;18.40;16.67;;;1.40;99.90;;;;;;5045079;28;20065;-76
2021/01/27 11:20:48;;;;;;;17.10;15.45;;;1.40;99.90;;;;;;5010873;28;20072;-77
2021/01/27 11:23:20;;;;;;;16.88;15.55;;;1.40;99.90;;;;;;5012900;28;20053;-76
2021/01/27 11:25:53;;;;;;;18.45;16.75;;;1.50;99.90;;;;;;5029136;28;20053;-76
2021/01/27 11:28:24;;;;;;;16.38;15.02;;;1.50;99.90;;;;;;5029515;28;20102;-77
2021/01/27 11:30:51;;;;;;;17.23;15.68;;;1.40;99.90;;;;;;5047020;28;20045;-77
2021/01/27 11:33:23;;;;;;;16.25;15.05;;;1.50;99.90;;;;;;5046187;28;20638;-76
2021/01/27 11:35:51;;;;;;;18.98;17.02;;;1.40;99.90;;;;;;5028602;28;20063;-77
2021/01/27 11:38:18;;;;;;;17.67;16.08;;;1.50;99.90;;;;;;5047286;28;20140;-79
2021/01/27 11:40:45;;;;;;;15.68;14.43;;;1.50;99.90;;;;;;5030700;28;20689;-76
2021/01/27 11:43:11;;;;;;;18.00;16.33;;;1.50;99.90;;;;;;5026833;28;20045;-78
2021/01/27 11:45:38;;;;;;;16.42;14.93;;;1.50;99.90;;;;;;5044769;28;20427;-78
2021/01/27 11:48:24;;;;;;;18.25;16.27;;;1.60;99.90;;;;;;5027591;28;20080;-79
2021/01/27 11:50:51;;;;;;;16.85;15.55;;;1.70;99.90;;;;;;5010470;28;20162;-78
2021/01/27 11:53:17;;;;;;;17.98;16.25;;;1.70;99.90;;;;;;5027972;28;20049;-79
2021/01/27 11:55:44;;;;;;;16.00;14.82;;;1.70;99.90;;;;;;5029819;28;20145;-77
2021/01/27 11:58:10;;;;;;;19.10;17.35;;;1.70;99.90;;;;;;5009695;28;20075;-77
2021/01/27 12:00:37;;;;;;;18.48;16.92;;;1.70;99.90;;;;;;5041023;28;20071;-77
2021/01/27 12:03:04;;;;;;;18.15;16.48;;;1.70;99.90;;;;;;5028415;28;20159;-77
2021/01/27 12:05:30;;;;;;;19.23;17.50;;;1.90;99.90;;;;;;5045315;28;20060;-77
2021/01/27 12:07:57;;;;;;;18.23;16.58;;;1.80;99.90;;;;;;5019264;28;20131;-77
2021/01/27 12:10:25;;;;;;;17.60;16.10;;;1.90;99.90;;;;;;5009547;28;20076;-78
2021/01/27 12:12:51;;;;;;;20.95;19.05;;;1.90;99.90;;;;;;5025923;28;20053;-78
2021/01/27 12:15:19;;;;;;;20.20;18.27;;;1.90;99.90;;;;;;5009028;28;20041;-78
2021/01/27 12:17:45;;;;;;;22.15;20.15;;;1.90;99.90;;;;;;5028894;28;20085;-79
2021/01/27 12:20:13;;;;;;;39.75;31.13;;;1.80;99.90;;;;;;5010486;28;20167;-78
2021/01/27 12:22:41;;;;;;;18.05;16.48;;;1.60;99.90;;;;;;5029215;28;20408;-77
2021/01/27 12:25:08;;;;;;;21.33;18.67;;;1.50;99.90;;;;;;5029363;28;20057;-77
2021/01/27 12:27:35;;;;;;;20.30;18.45;;;1.50;99.90;;;;;;5047030;28;20073;-79
2021/01/27 12:30:02;;;;;;;20.85;18.85;;;1.50;99.90;;;;;;5029501;28;20668;-78
2021/01/27 12:32:29;;;;;;;19.92;18.15;;;1.50;99.90;;;;;;5044836;28;20037;-79
2021/01/27 12:34:55;;;;;;;19.30;17.60;;;1.60;99.90;;;;;;5030140;28;20041;-78
2021/01/27 12:37:24;;;;;;;19.20;17.40;;;1.70;99.90;;;;;;5012702;28;20132;-77
2021/01/27 12:39:50;;;;;;;19.00;17.50;;;1.70;99.90;;;;;;5010384;28;20053;-78
2021/01/27 12:42:17;;;;;;;19.55;17.98;;;1.70;99.90;;;;;;4997562;28;20063;-77
2021/01/27 12:44:45;;;;;;;19.20;17.52;;;1.80;99.90;;;;;;5025127;28;20420;-77
2021/01/27 12:47:12;;;;;;;19.95;17.98;;;1.80;99.90;;;;;;5046442;28;20072;-77
2021/01/27 12:49:40;;;;;;;19.58;17.83;;;1.80;99.90;;;;;;5047940;28;20052;-78
2021/01/27 12:52:06;;;;;;;21.25;19.35;;;1.80;99.90;;;;;;5023989;28;20045;-77
2021/01/27 12:54:33;;;;;;;19.88;18.00;;;1.80;99.90;;;;;;5029363;28;20064;-77
2021/01/27 12:57:00;;;;;;;19.67;17.77;;;1.80;99.90;;;;;;5024049;28;20136;-78
2021/01/27 12:59:26;;;;;;;23.55;19.73;;;1.80;99.90;;;;;;5026412;28;20045;-77
2021/01/27 13:01:52;;;;;;;20.73;18.52;;;1.80;99.90;;;;;;5006342;28;20052;-78
2021/01/27 13:04:19;;;;;;;19.95;17.90;;;1.80;99.90;;;;;;5025424;28;20041;-78
2021/01/27 13:06:46;;;;;;;18.67;16.80;;;1.70;99.90;;;;;;5025569;28;20056;-78
2021/01/27 13:09:12;;;;;;;21.20;18.92;;;1.70;99.90;;;;;;5026674;28;20057;-78
2021/01/27 13:11:38;;;;;;;17.55;15.90;;;1.80;99.90;;;;;;4992821;28;20058;-77
2021/01/27 13:14:05;;;;;;;19.17;17.38;;;1.80;99.90;;;;;;5006936;28;20073;-78
2021/01/27 13:16:31;;;;;;;19.33;17.42;;;1.80;99.90;;;;;;4990652;28;20058;-78